Time;durP1;ratioP1;P1;durP2;ratioP2;P2;SDS_P1;SDS_P2;PMS_P1;PMS_P2;Temp;Humidity;BMP_temperature;BMP_pressure;BME280_temperature;BME280_humidity;BME280_pressure;Samples;Min_cycle;Max_cycle;Signal;HPM_P1;HPM_P2
2022/08/13 00:00:35;;;;;;;4.40;1.70;;;;;;;;;;5113505;28;20028;-79
2022/08/13 00:03:02;;;;;;;6.03;1.67;;;;;;;;;;5095393;28;20389;-79
2022/08/13 00:05:28;;;;;;;5.15;1.40;;;;;;;;;;5113486;28;20026;-79
2022/08/13 00:07:54;;;;;;;4.13;1.77;;;;;;;;;;5113572;28;20059;-79
2022/08/13 00:10:38;;;;;;;4.82;1.65;;;;;;;;;;5095109;28;20023;-79
2022/08/13 00:13:06;;;;;;;2.45;1.50;;;;;;;;;;5113413;28;20039;-79
2022/08/13 00:15:37;;;;;;;5.68;1.30;;;;;;;;;;5095268;28;20119;-78
2022/08/13 00:18:04;;;;;;;2.22;1.52;;;;;;;;;;5112866;28;20024;-79
2022/08/13 00:20:33;;;;;;;3.03;1.48;;;;;;;;;;5112429;28;20027;-79
2022/08/13 00:22:59;;;;;;;3.05;1.63;;;;;;;;;;5113483;28;20027;-79
2022/08/13 00:25:25;;;;;;;5.00;1.50;;;;;;;;;;5113088;28;20030;-79
2022/08/13 00:27:56;;;;;;;2.70;1.27;;;;;;;;;;5095054;28;20026;-79
2022/08/13 00:30:31;;;;;;;3.72;1.45;;;;;;;;;;5113414;28;20343;-79
2022/08/13 00:33:11;;;;;;;2.72;1.55;;;;;;;;;;5113252;28;20038;-78
2022/08/13 00:35:38;;;;;;;3.35;1.35;;;;;;;;;;5094893;28;20369;-79
2022/08/13 00:38:14;;;;;;;2.45;1.38;;;;;;;;;;5113157;28;20023;-79
2022/08/13 00:40:44;;;;;;;5.10;1.88;;;;;;;;;;5113061;28;20092;-79
2022/08/13 00:43:10;;;;;;;8.63;1.42;;;;;;;;;;5113015;28;20020;-79
2022/08/13 00:45:37;;;;;;;4.78;1.50;;;;;;;;;;5112912;28;20030;-79
2022/08/13 00:50:50;;;;;;;4.10;1.50;;;;;;;;;;5113619;28;20035;-78
2022/08/13 00:53:17;;;;;;;6.78;1.13;;;;;;;;;;5094689;28;20118;-78
2022/08/13 00:55:46;;;;;;;3.90;1.48;;;;;;;;;;5094824;28;20360;-78
2022/08/13 00:58:15;;;;;;;3.60;1.60;;;;;;;;;;5113134;28;20024;-78
2022/08/13 01:00:41;;;;;;;7.07;1.58;;;;;;;;;;5105765;28;20025;-78
2022/08/13 01:03:08;;;;;;;7.47;1.67;;;;;;;;;;5092681;28;20868;-78
2022/08/13 01:05:34;;;;;;;6.13;1.58;;;;;;;;;;5092870;28;20020;-78
2022/08/13 01:08:01;;;;;;;8.93;1.80;;;;;;;;;;5074270;28;20020;-78
2022/08/13 01:10:27;;;;;;;2.88;1.45;;;;;;;;;;5092743;28;20036;-78
2022/08/13 01:12:54;;;;;;;2.97;1.40;;;;;;;;;;5092254;28;20024;-78
2022/08/13 01:15:23;;;;;;;3.35;1.42;;;;;;;;;;5091999;28;20031;-79
2022/08/13 01:17:53;;;;;;;4.25;1.50;;;;;;;;;;5073440;28;20081;-78
2022/08/13 01:20:21;;;;;;;2.97;1.40;;;;;;;;;;5073218;28;20031;-79
2022/08/13 01:22:52;;;;;;;4.00;1.67;;;;;;;;;;5091609;28;20020;-78
2022/08/13 01:25:20;;;;;;;4.50;1.83;;;;;;;;;;5091517;28;20030;-78
2022/08/13 01:27:46;;;;;;;6.28;1.50;;;;;;;;;;5092097;28;20024;-78
2022/08/13 01:30:16;;;;;;;4.57;2.00;;;;;;;;;;5093302;28;20426;-78
2022/08/13 01:32:42;;;;;;;4.07;1.60;;;;;;;;;;5095952;28;20024;-78
2022/08/13 01:35:08;;;;;;;5.20;1.67;;;;;;;;;;5107218;28;20055;-78
2022/08/13 01:37:37;;;;;;;4.75;1.40;;;;;;;;;;5116133;28;20521;-78
2022/08/13 01:40:04;;;;;;;4.60;1.25;;;;;;;;;;5097743;28;20110;-78
2022/08/13 01:42:36;;;;;;;5.10;1.60;;;;;;;;;;5115887;28;20012;-78
2022/08/13 01:45:03;;;;;;;4.22;1.80;;;;;;;;;;5116584;28;20016;-78
2022/08/13 01:50:29;;;;;;;3.72;1.30;;;;;;;;;;5116489;28;20062;-78
2022/08/13 01:53:00;;;;;;;2.95;1.50;;;;;;;;;;5116032;28;20469;-78
2022/08/13 01:55:29;;;;;;;3.35;1.60;;;;;;;;;;5095671;28;20043;-78
2022/08/13 01:57:55;;;;;;;3.15;1.40;;;;;;;;;;5095236;28;20024;-78
2022/08/13 02:00:23;;;;;;;6.70;1.50;;;;;;;;;;5094555;28;20024;-78
2022/08/13 02:02:49;;;;;;;9.13;1.35;;;;;;;;;;5095089;28;20409;-78
2022/08/13 02:05:15;;;;;;;19.52;1.75;;;;;;;;;;5095333;28;20020;-78
2022/08/13 02:07:44;;;;;;;7.05;1.70;;;;;;;;;;5094938;28;20104;-78
2022/08/13 02:10:11;;;;;;;2.83;1.35;;;;;;;;;;5095626;28;20028;-78
2022/08/13 02:12:37;;;;;;;2.38;1.30;;;;;;;;;;5078074;28;20032;-78
2022/08/13 02:15:07;;;;;;;3.92;1.40;;;;;;;;;;5074937;28;20020;-78
2022/08/13 02:17:41;;;;;;;2.67;1.55;;;;;;;;;;5074930;28;20028;-78
2022/08/13 02:20:07;;;;;;;4.40;1.33;;;;;;;;;;5056500;28;20052;-78
2022/08/13 02:22:34;;;;;;;3.38;1.40;;;;;;;;;;5056732;28;20044;-78
2022/08/13 02:25:01;;;;;;;4.53;1.30;;;;;;;;;;5056677;28;20021;-78
2022/08/13 02:27:28;;;;;;;2.03;1.27;;;;;;;;;;5074789;28;20529;-78
2022/08/13 02:29:55;;;;;;;5.70;1.55;;;;;;;;;;5074775;28;20028;-78
2022/08/13 02:32:23;;;;;;;3.30;1.38;;;;;;;;;;5074997;28;20025;-78
2022/08/13 02:34:50;;;;;;;8.40;1.58;;;;;;;;;;5074914;28;20031;-78
2022/08/13 02:37:20;;;;;;;3.45;1.50;;;;;;;;;;5056514;28;20446;-78
2022/08/13 02:39:47;;;;;;;22.02;1.83;;;;;;;;;;5056822;28;20033;-78
2022/08/13 02:42:13;;;;;;;3.97;1.35;;;;;;;;;;5055863;28;20032;-78
2022/08/13 02:44:40;;;;;;;2.83;1.20;;;;;;;;;;5074740;28;20024;-79
2022/08/13 02:47:06;;;;;;;4.10;1.20;;;;;;;;;;5074262;28;20025;-78
2022/08/13 02:49:32;;;;;;;4.18;1.95;;;;;;;;;;5074491;28;20070;-78
2022/08/13 02:51:59;;;;;;;3.70;1.23;;;;;;;;;;5074336;28;20033;-78
2022/08/13 02:54:27;;;;;;;6.10;1.27;;;;;;;;;;5074065;28;20040;-78
2022/08/13 02:56:53;;;;;;;3.00;1.42;;;;;;;;;;5074248;28;20031;-78
2022/08/13 02:59:19;;;;;;;8.48;1.33;;;;;;;;;;5056231;28;20094;-78
2022/08/13 03:01:46;;;;;;;3.28;1.20;;;;;;;;;;5074117;28;20024;-78
2022/08/13 03:04:14;;;;;;;3.83;1.58;;;;;;;;;;5074222;28;20032;-78
2022/08/13 03:06:42;;;;;;;2.35;1.30;;;;;;;;;;5074107;28;20020;-78
2022/08/13 03:09:08;;;;;;;2.90;1.27;;;;;;;;;;5073978;28;20077;-78
2022/08/13 03:11:36;;;;;;;3.75;1.52;;;;;;;;;;5073726;28;20025;-78
2022/08/13 03:14:09;;;;;;;2.08;1.30;;;;;;;;;;5073320;28;20025;-78
2022/08/13 03:16:35;;;;;;;4.85;1.20;;;;;;;;;;5073545;28;20130;-78
2022/08/13 03:19:01;;;;;;;3.53;1.55;;;;;;;;;;5073437;28;20024;-78
2022/08/13 03:21:33;;;;;;;2.17;1.20;;;;;;;;;;5073619;28;20016;-78
2022/08/13 03:24:00;;;;;;;6.95;1.50;;;;;;;;;;5073588;28;20090;-78
2022/08/13 03:26:26;;;;;;;3.85;1.38;;;;;;;;;;5073712;28;20058;-78
2022/08/13 03:28:54;;;;;;;2.97;1.20;;;;;;;;;;5073490;28;20039;-78
2022/08/13 03:31:20;;;;;;;5.20;1.38;;;;;;;;;;5073576;28;20374;-78
2022/08/13 03:33:47;;;;;;;1.90;1.30;;;;;;;;;;5073848;28;20205;-78
2022/08/13 03:36:13;;;;;;;2.88;1.15;;;;;;;;;;5073154;28;20027;-78
2022/08/13 03:38:40;;;;;;;2.88;1.20;;;;;;;;;;5073279;28;20476;-78
2022/08/13 03:41:12;;;;;;;2.60;1.27;;;;;;;;;;5074675;28;20443;-78
2022/08/13 03:43:42;;;;;;;3.58;1.17;;;;;;;;;;5093496;28;20457;-78
2022/08/13 03:46:08;;;;;;;3.63;1.30;;;;;;;;;;5093068;28;20031;-78
2022/08/13 03:48:35;;;;;;;4.95;1.27;;;;;;;;;;5093055;28;20116;-78
2022/08/13 03:51:01;;;;;;;3.00;1.17;;;;;;;;;;5092389;28;20035;-78
2022/08/13 03:53:29;;;;;;;2.65;1.20;;;;;;;;;;5095957;28;20765;-78
2022/08/13 03:55:58;;;;;;;5.68;1.25;;;;;;;;;;5093654;28;20202;-78
2022/08/13 03:58:24;;;;;;;2.67;1.52;;;;;;;;;;5093264;28;20419;-78
2022/08/13 04:00:50;;;;;;;2.25;1.30;;;;;;;;;;5092964;28;20032;-78
2022/08/13 04:03:32;;;;;;;2.10;1.30;;;;;;;;;;5075055;28;20074;-78
2022/08/13 04:05:58;;;;;;;4.37;1.10;;;;;;;;;;5093195;28;20031;-78
2022/08/13 04:08:28;;;;;;;4.90;2.00;;;;;;;;;;5093207;28;20095;-78
2022/08/13 04:10:55;;;;;;;3.03;1.40;;;;;;;;;;5090789;28;20025;-78
2022/08/13 04:13:24;;;;;;;2.08;1.20;;;;;;;;;;5086002;28;20024;-78
2022/08/13 04:15:51;;;;;;;5.95;1.40;;;;;;;;;;5074834;28;20028;-78
2022/08/13 04:18:17;;;;;;;1.73;1.10;;;;;;;;;;5093077;28;20024;-78
2022/08/13 04:20:43;;;;;;;1.70;1.30;;;;;;;;;;5092296;28;20407;-78
2022/08/13 04:23:16;;;;;;;4.53;1.50;;;;;;;;;;5092101;28;20380;-78
2022/08/13 04:25:47;;;;;;;3.78;1.20;;;;;;;;;;5066980;28;20336;-78
2022/08/13 04:28:14;;;;;;;2.75;1.15;;;;;;;;;;5073021;28;20028;-78
2022/08/13 04:30:41;;;;;;;3.45;1.30;;;;;;;;;;5073172;28;20032;-78
2022/08/13 04:33:14;;;;;;;2.10;1.25;;;;;;;;;;5073025;28;20036;-78
2022/08/13 04:35:41;;;;;;;4.82;1.25;;;;;;;;;;5073118;28;20025;-78
2022/08/13 04:38:07;;;;;;;3.72;1.15;;;;;;;;;;5073238;28;20033;-78
2022/08/13 04:40:34;;;;;;;6.35;1.38;;;;;;;;;;5072884;28;20024;-78
2022/08/13 04:43:00;;;;;;;2.00;1.17;;;;;;;;;;5055809;28;20455;-78
2022/08/13 04:45:27;;;;;;;4.60;1.10;;;;;;;;;;5073280;28;20024;-78
2022/08/13 04:47:54;;;;;;;9.68;1.40;;;;;;;;;;5073154;28;20399;-79
2022/08/13 04:50:20;;;;;;;2.05;1.20;;;;;;;;;;5073099;28;20025;-78
2022/08/13 04:52:46;;;;;;;6.28;1.48;;;;;;;;;;5054838;28;20487;-78
2022/08/13 04:55:12;;;;;;;5.28;1.20;;;;;;;;;;5091070;28;20076;-78
2022/08/13 04:57:41;;;;;;;9.23;2.28;;;;;;;;;;5093180;28;20504;-78
2022/08/13 05:00:07;;;;;;;4.57;1.15;;;;;;;;;;5093217;28;20032;-79
2022/08/13 05:02:40;;;;;;;2.33;1.10;;;;;;;;;;5092889;28;20020;-78
2022/08/13 05:05:06;;;;;;;;;;;;;;;;;;5094601;28;20591;-78
2022/08/13 05:07:32;;;;;;;1.92;1.20;;;;;;;;;;5096935;28;19931;-78
2022/08/13 05:09:58;;;;;;;1.50;1.40;;;;;;;;;;5097045;28;20032;-78
2022/08/13 05:12:24;;;;;;;8.50;1.15;;;;;;;;;;5097338;28;20024;-78
2022/08/13 05:14:50;;;;;;;5.32;1.30;;;;;;;;;;5111483;27;20031;-78
2022/08/13 05:17:16;;;;;;;8.05;1.40;;;;;;;;;;5138458;27;20545;-78
2022/08/13 05:19:47;;;;;;;6.03;1.38;;;;;;;;;;5113385;27;20027;-78
2022/08/13 05:22:14;;;;;;;4.18;1.42;;;;;;;;;;5122521;27;20015;-78
2022/08/13 05:24:41;;;;;;;4.72;1.42;;;;;;;;;;5119481;27;20026;-78
2022/08/13 05:27:09;;;;;;;3.60;1.55;;;;;;;;;;5110356;28;20470;-78
2022/08/13 05:29:37;;;;;;;1.77;1.02;;;;;;;;;;5103268;27;20102;-78
2022/08/13 05:32:04;;;;;;;6.15;1.40;;;;;;;;;;5128590;27;20106;-78
2022/08/13 05:34:30;;;;;;;2.67;1.50;;;;;;;;;;5111119;28;20028;-79
2022/08/13 05:36:56;;;;;;;6.25;1.60;;;;;;;;;;5098618;28;20466;-79
2022/08/13 05:39:22;;;;;;;5.53;1.13;;;;;;;;;;5125110;27;20049;-78
2022/08/13 05:41:49;;;;;;;6.03;1.10;;;;;;;;;;5119288;27;20513;-79
2022/08/13 05:44:15;;;;;;;2.30;1.40;;;;;;;;;;5098295;28;20020;-79
2022/08/13 05:46:41;;;;;;;7.18;1.42;;;;;;;;;;5098096;28;20027;-79
2022/08/13 05:49:08;;;;;;;2.92;1.40;;;;;;;;;;5116798;28;20023;-79
2022/08/13 05:51:34;;;;;;;3.30;1.20;;;;;;;;;;5116238;28;20389;-78
2022/08/13 05:54:00;;;;;;;1.80;1.20;;;;;;;;;;5126811;27;20485;-78
2022/08/13 05:56:37;;;;;;;6.50;1.60;;;;;;;;;;5115376;28;20085;-78
2022/08/13 05:59:04;;;;;;;6.97;1.40;;;;;;;;;;5058177;28;20032;-79
2022/08/13 06:04:19;;;;;;;4.30;1.20;;;;;;;;;;5108770;28;20043;-78
2022/08/13 06:06:46;;;;;;;4.10;1.15;;;;;;;;;;5082488;28;20021;-79
2022/08/13 06:09:12;;;;;;;4.53;1.25;;;;;;;;;;5077818;28;20344;-79
2022/08/13 06:11:40;;;;;;;9.20;1.30;;;;;;;;;;5095979;28;20021;-79
2022/08/13 06:14:07;;;;;;;1.42;1.10;;;;;;;;;;5077604;28;20604;-77
2022/08/13 06:16:33;;;;;;;6.65;1.33;;;;;;;;;;5093293;28;20096;-78
2022/08/13 06:19:00;;;;;;;3.92;1.42;;;;;;;;;;5095754;28;20028;-78
2022/08/13 06:21:26;;;;;;;5.65;1.35;;;;;;;;;;5095551;28;20016;-78
2022/08/13 06:23:54;;;;;;;5.82;1.10;;;;;;;;;;5077161;28;20023;-78
2022/08/13 06:26:22;;;;;;;5.40;1.10;;;;;;;;;;5102696;28;20066;-78
2022/08/13 06:28:51;;;;;;;4.18;1.63;;;;;;;;;;5115073;28;20024;-78
2022/08/13 06:31:25;;;;;;;4.82;1.00;;;;;;;;;;5089403;28;20433;-78
2022/08/13 06:33:52;;;;;;;2.17;1.30;;;;;;;;;;5110849;28;20055;-78
2022/08/13 06:36:19;;;;;;;4.13;1.05;;;;;;;;;;5114162;28;20058;-78
2022/08/13 06:38:49;;;;;;;2.65;1.40;;;;;;;;;;5114865;28;20020;-79
2022/08/13 06:41:17;;;;;;;3.72;1.50;;;;;;;;;;5115338;28;20077;-78
2022/08/13 06:43:45;;;;;;;5.07;2.03;;;;;;;;;;5114562;28;20022;-78
2022/08/13 06:46:12;;;;;;;6.53;1.05;;;;;;;;;;5114808;28;20023;-78
2022/08/13 06:48:40;;;;;;;10.55;1.35;;;;;;;;;;5114852;28;20381;-78
2022/08/13 06:51:07;;;;;;;2.10;0.93;;;;;;;;;;5103701;28;20043;-80
2022/08/13 06:53:35;;;;;;;3.55;1.23;;;;;;;;;;5119034;27;20047;-78
2022/08/13 06:56:02;;;;;;;5.95;1.50;;;;;;;;;;5105763;27;20031;-78
2022/08/13 06:58:30;;;;;;;7.60;1.60;;;;;;;;;;5121801;27;20114;-78
2022/08/13 07:00:56;;;;;;;5.22;1.30;;;;;;;;;;5115043;28;20023;-79
2022/08/13 07:03:26;;;;;;;1.90;1.10;;;;;;;;;;5126039;27;20020;-79
2022/08/13 07:05:53;;;;;;;4.03;1.25;;;;;;;;;;5122517;27;20046;-79
2022/08/13 07:08:21;;;;;;;3.70;1.48;;;;;;;;;;5120876;27;20019;-79
2022/08/13 07:11:21;;;;;;;3.10;1.00;;;;;;;;;;5114786;28;20019;-78
2022/08/13 07:13:33;;;;;;;4.25;1.20;;;;;;;;;;5114166;27;20039;-78
2022/08/13 07:15:59;;;;;;;2.95;0.85;;;;;;;;;;5114863;28;20020;-78
2022/08/13 07:18:26;;;;;;;6.40;1.10;;;;;;;;;;5114620;27;20027;-78
2022/08/13 07:20:52;;;;;;;6.78;1.30;;;;;;;;;;5119233;27;20020;-78
2022/08/13 07:23:18;;;;;;;3.85;1.48;;;;;;;;;;5116359;27;20051;-79
2022/08/13 07:25:46;;;;;;;10.93;2.47;;;;;;;;;;5114359;28;20500;-80
2022/08/13 07:28:16;;;;;;;4.45;1.20;;;;;;;;;;5113733;28;20019;-78
2022/08/13 07:30:45;;;;;;;8.55;1.33;;;;;;;;;;5114373;28;20111;-79
2022/08/13 07:33:13;;;;;;;3.92;0.98;;;;;;;;;;5113670;28;20084;-78
2022/08/13 07:35:39;;;;;;;2.08;1.08;;;;;;;;;;5113560;27;20019;-78
2022/08/13 07:38:05;;;;;;;2.63;1.10;;;;;;;;;;5118107;27;20012;-79
2022/08/13 07:40:33;;;;;;;5.80;1.30;;;;;;;;;;5122748;27;20023;-78
2022/08/13 07:43:04;;;;;;;2.80;1.20;;;;;;;;;;5104074;28;20020;-79
2022/08/13 07:45:30;;;;;;;3.85;1.30;;;;;;;;;;5114178;28;20457;-81
2022/08/13 07:47:57;;;;;;;5.10;1.10;;;;;;;;;;5114185;28;20027;-80
2022/08/13 07:50:23;;;;;;;4.05;1.23;;;;;;;;;;5114601;28;20023;-79
2022/08/13 07:52:57;;;;;;;4.10;1.10;;;;;;;;;;5114030;28;20084;-79
2022/08/13 07:55:25;;;;;;;3.80;1.45;;;;;;;;;;5113805;28;20043;-79
2022/08/13 07:57:52;;;;;;;3.42;1.20;;;;;;;;;;5113905;28;20015;-79
2022/08/13 08:00:25;;;;;;;2.53;1.00;;;;;;;;;;5095468;28;20381;-79
2022/08/13 08:02:55;;;;;;;2.42;1.05;;;;;;;;;;5114113;28;20378;-80
2022/08/13 08:05:24;;;;;;;5.20;1.08;;;;;;;;;;5113549;28;20026;-79
2022/08/13 08:07:51;;;;;;;7.30;1.48;;;;;;;;;;5095338;28;20019;-79
2022/08/13 08:10:18;;;;;;;8.65;1.33;;;;;;;;;;5113688;28;20035;-79
2022/08/13 08:12:45;;;;;;;1.90;1.17;;;;;;;;;;5113805;28;20028;-79
2022/08/13 08:15:12;;;;;;;2.40;1.05;;;;;;;;;;5113738;28;20024;-79
2022/08/13 08:17:40;;;;;;;4.20;1.08;;;;;;;;;;5095519;28;20470;-80
2022/08/13 08:20:08;;;;;;;3.45;1.10;;;;;;;;;;5113745;28;20370;-79
2022/08/13 08:22:34;;;;;;;3.45;1.10;;;;;;;;;;5113907;28;20103;-79
2022/08/13 08:25:01;;;;;;;2.75;1.08;;;;;;;;;;5113659;28;20028;-79
2022/08/13 08:27:27;;;;;;;3.92;1.10;;;;;;;;;;5113811;28;20046;-79
2022/08/13 08:29:53;;;;;;;4.18;1.02;;;;;;;;;;5113501;28;20091;-79
2022/08/13 08:32:19;;;;;;;3.38;0.93;;;;;;;;;;5113365;28;20019;-79
2022/08/13 08:34:50;;;;;;;6.20;1.13;;;;;;;;;;5113120;28;20031;-80
2022/08/13 08:42:54;;;;;;;6.13;1.23;;;;;;;;;;5121155;27;20034;-80
2022/08/13 08:45:22;;;;;;;1.33;0.77;;;;;;;;;;5105956;27;20022;-79
2022/08/13 08:47:48;;;;;;;5.32;1.10;;;;;;;;;;5117422;27;20019;-79
2022/08/13 08:50:15;;;;;;;3.92;1.00;;;;;;;;;;5100195;28;20028;-80
2022/08/13 08:53:24;;;;;;;3.80;1.00;;;;;;;;;;5131617;27;20035;-80
2022/08/13 08:55:35;;;;;;;2.67;1.08;;;;;;;;;;5090585;28;20079;-80
2022/08/13 08:58:03;;;;;;;6.97;1.30;;;;;;;;;;5078746;28;20043;-83
2022/08/13 09:00:29;;;;;;;5.93;1.05;;;;;;;;;;5092044;28;20498;-82
2022/08/13 09:02:56;;;;;;;3.72;1.10;;;;;;;;;;5077283;28;20112;-84
2022/08/13 09:05:25;;;;;;;3.15;1.00;;;;;;;;;;5094100;28;20023;-82
2022/08/13 09:07:52;;;;;;;2.28;1.08;;;;;;;;;;5096875;28;20382;-83
2022/08/13 09:10:19;;;;;;;2.47;0.82;;;;;;;;;;5096910;28;20022;-84
2022/08/13 09:12:46;;;;;;;2.17;1.10;;;;;;;;;;5096814;28;20024;-85
2022/08/13 09:15:12;;;;;;;6.85;1.20;;;;;;;;;;5095027;28;20028;-83
2022/08/13 09:17:39;;;;;;;1.98;0.95;;;;;;;;;;5096487;28;20028;-84
2022/08/13 09:20:12;;;;;;;2.70;1.00;;;;;;;;;;5078645;28;20024;-78
2022/08/13 09:22:40;;;;;;;2.03;1.10;;;;;;;;;;5096557;28;20016;-81
2022/08/13 09:25:06;;;;;;;3.58;1.00;;;;;;;;;;5096815;28;20027;-81
2022/08/13 09:27:34;;;;;;;7.07;0.93;;;;;;;;;;5079953;28;20099;-81
2022/08/13 09:30:00;;;;;;;4.07;0.90;;;;;;;;;;5097100;28;20016;-81
2022/08/13 09:32:28;;;;;;;3.55;1.10;;;;;;;;;;5096396;28;20031;-81
2022/08/13 09:34:54;;;;;;;5.72;1.08;;;;;;;;;;5087671;28;20073;-81
2022/08/13 09:37:21;;;;;;;2.28;0.95;;;;;;;;;;5096336;28;20074;-81
2022/08/13 09:39:59;;;;;;;4.25;0.93;;;;;;;;;;5095666;28;20116;-81
2022/08/13 09:42:28;;;;;;;2.33;0.90;;;;;;;;;;5096127;28;20044;-81
2022/08/13 09:44:56;;;;;;;2.65;0.95;;;;;;;;;;5096242;28;20355;-81
2022/08/13 09:47:23;;;;;;;1.80;1.00;;;;;;;;;;5095545;28;20077;-78
2022/08/13 09:49:50;;;;;;;2.28;0.85;;;;;;;;;;5095559;28;20051;-81
2022/08/13 09:52:16;;;;;;;5.10;0.90;;;;;;;;;;5095909;28;20494;-81
2022/08/13 09:54:43;;;;;;;2.53;0.98;;;;;;;;;;5111432;28;20048;-79
2022/08/13 09:57:09;;;;;;;5.75;0.88;;;;;;;;;;5095651;28;20028;-80
2022/08/13 09:59:36;;;;;;;8.65;1.80;;;;;;;;;;5116048;28;20019;-80
2022/08/13 10:02:09;;;;;;;4.35;0.90;;;;;;;;;;5116018;28;20094;-80
2022/08/13 10:04:37;;;;;;;4.32;0.77;;;;;;;;;;5098085;28;20023;-80
2022/08/13 10:07:04;;;;;;;2.78;0.75;;;;;;;;;;5103561;28;20031;-80
2022/08/13 10:09:33;;;;;;;4.75;0.98;;;;;;;;;;5113744;28;20028;-79
2022/08/13 10:12:00;;;;;;;2.53;1.00;;;;;;;;;;5092601;28;20031;-79
2022/08/13 10:14:26;;;;;;;2.35;1.10;;;;;;;;;;5095198;28;20504;-80
2022/08/13 10:16:53;;;;;;;1.60;0.70;;;;;;;;;;5102348;28;20070;-80
2022/08/13 10:19:19;;;;;;;3.00;0.82;;;;;;;;;;5096787;28;20439;-81
2022/08/13 10:21:45;;;;;;;2.45;0.88;;;;;;;;;;5095295;28;20024;-80
2022/08/13 10:24:11;;;;;;;1.30;0.77;;;;;;;;;;5095003;28;20024;-79
2022/08/13 10:26:40;;;;;;;2.13;1.05;;;;;;;;;;5095032;28;20085;-80
2022/08/13 10:29:08;;;;;;;0.88;0.60;;;;;;;;;;5096162;28;20038;-80
2022/08/13 10:31:34;;;;;;;3.90;0.95;;;;;;;;;;5095865;28;20094;-80
2022/08/13 10:34:00;;;;;;;2.47;0.77;;;;;;;;;;5095107;28;20058;-78
2022/08/13 10:36:29;;;;;;;3.80;0.93;;;;;;;;;;5102904;28;20035;-79
2022/08/13 10:38:55;;;;;;;3.83;1.20;;;;;;;;;;5115397;28;20024;-80
2022/08/13 10:41:22;;;;;;;2.55;0.80;;;;;;;;;;5108944;28;20031;-80
2022/08/13 10:43:48;;;;;;;5.40;0.80;;;;;;;;;;5092486;28;20028;-80
2022/08/13 10:46:16;;;;;;;4.32;0.88;;;;;;;;;;5098175;28;20024;-80
2022/08/13 10:48:46;;;;;;;5.25;1.00;;;;;;;;;;5093995;28;20058;-80
2022/08/13 10:51:12;;;;;;;2.47;0.73;;;;;;;;;;5112170;28;20027;-80
2022/08/13 10:56:24;;;;;;;4.18;0.90;;;;;;;;;;5093601;28;20148;-80
2022/08/13 10:58:50;;;;;;;3.08;0.90;;;;;;;;;;5093557;28;20040;-80
2022/08/13 11:01:19;;;;;;;12.70;0.85;;;;;;;;;;5093885;28;20034;-80
2022/08/13 11:03:45;;;;;;;5.45;0.80;;;;;;;;;;5093484;28;20414;-80
2022/08/13 11:06:11;;;;;;;1.08;0.82;;;;;;;;;;5094103;28;20107;-80
2022/08/13 11:08:37;;;;;;;6.15;1.00;;;;;;;;;;5094567;28;20061;-80
2022/08/13 11:11:10;;;;;;;7.07;1.20;;;;;;;;;;5094575;28;20121;-80
2022/08/13 11:13:37;;;;;;;1.90;0.73;;;;;;;;;;5094434;28;20024;-80
2022/08/13 11:16:06;;;;;;;3.72;0.90;;;;;;;;;;5075933;28;20020;-80
2022/08/13 11:18:32;;;;;;;2.03;0.80;;;;;;;;;;5094171;28;20771;-81
2022/08/13 11:21:08;;;;;;;2.15;1.17;;;;;;;;;;5094138;28;20385;-79
2022/08/13 11:23:37;;;;;;;2.55;0.70;;;;;;;;;;5094208;28;20028;-79
2022/08/13 11:26:04;;;;;;;0.73;0.70;;;;;;;;;;5093939;28;20020;-77
2022/08/13 11:28:30;;;;;;;3.17;0.80;;;;;;;;;;5075318;28;20085;-78
2022/08/13 11:30:56;;;;;;;4.60;0.75;;;;;;;;;;5093699;28;20086;-78
2022/08/13 11:33:23;;;;;;;1.80;0.85;;;;;;;;;;5093270;28;20024;-78
2022/08/13 11:35:51;;;;;;;3.47;1.10;;;;;;;;;;5076795;28;20026;-79
2022/08/13 11:38:18;;;;;;;2.08;1.00;;;;;;;;;;5055177;28;20029;-79
2022/08/13 11:40:46;;;;;;;7.47;1.30;;;;;;;;;;5073271;28;20028;-79
2022/08/13 11:43:12;;;;;;;3.25;0.90;;;;;;;;;;5073616;28;20028;-78
2022/08/13 11:45:38;;;;;;;2.40;0.80;;;;;;;;;;5091951;28;20024;-79
2022/08/13 11:48:07;;;;;;;5.50;0.90;;;;;;;;;;5093293;28;20035;-80
2022/08/13 11:50:34;;;;;;;1.80;0.63;;;;;;;;;;5094286;28;20024;-79
2022/08/13 11:53:00;;;;;;;2.05;0.80;;;;;;;;;;5075273;28;20032;-80
2022/08/13 11:55:26;;;;;;;2.65;0.90;;;;;;;;;;5133992;27;20046;-79
2022/08/13 11:57:59;;;;;;;2.70;0.95;;;;;;;;;;5134500;27;20027;-79
2022/08/13 12:00:26;;;;;;;2.05;0.80;;;;;;;;;;5134209;27;20071;-80
2022/08/13 12:02:52;;;;;;;2.67;0.93;;;;;;;;;;5134362;27;20098;-79
2022/08/13 12:05:18;;;;;;;3.95;0.80;;;;;;;;;;5134111;27;20039;-79
2022/08/13 12:07:44;;;;;;;2.53;0.88;;;;;;;;;;5116113;27;20075;-80
2022/08/13 12:10:11;;;;;;;3.60;1.00;;;;;;;;;;5125734;27;20453;-80
2022/08/13 12:12:37;;;;;;;5.28;1.15;;;;;;;;;;5116274;27;20113;-80
2022/08/13 12:15:03;;;;;;;4.65;0.98;;;;;;;;;;5113652;28;20040;-83
2022/08/13 12:17:30;;;;;;;1.92;0.82;;;;;;;;;;5113577;28;20065;-82
2022/08/13 12:19:56;;;;;;;3.03;1.63;;;;;;;;;;5113693;28;20052;-82
2022/08/13 12:22:22;;;;;;;5.90;1.23;;;;;;;;;;5114039;28;20023;-82
2022/08/13 12:24:48;;;;;;;1.23;0.70;;;;;;;;;;5095447;28;20385;-83
2022/08/13 12:27:14;;;;;;;5.75;1.10;;;;;;;;;;5113597;28;20024;-84
2022/08/13 12:29:40;;;;;;;1.05;0.90;;;;;;;;;;5113629;28;20376;-83
2022/08/13 12:32:06;;;;;;;3.22;0.80;;;;;;;;;;5113480;28;20434;-82
2022/08/13 12:34:32;;;;;;;4.10;0.63;;;;;;;;;;5113604;28;20438;-82
2022/08/13 12:36:58;;;;;;;1.50;0.90;;;;;;;;;;5128162;28;20039;-81
2022/08/13 12:39:24;;;;;;;2.63;1.02;;;;;;;;;;5134194;28;20019;-81
2022/08/13 12:41:50;;;;;;;5.93;0.85;;;;;;;;;;5134426;28;20380;-82
2022/08/13 12:44:16;;;;;;;3.97;1.00;;;;;;;;;;5134462;28;20449;-83
2022/08/13 12:46:42;;;;;;;4.03;1.00;;;;;;;;;;5134033;28;20038;-81
2022/08/13 12:49:08;;;;;;;1.42;1.00;;;;;;;;;;5134431;28;20030;-85
2022/08/13 12:51:34;;;;;;;3.65;1.10;;;;;;;;;;5135333;28;20031;-82
2022/08/13 12:54:00;;;;;;;1.73;1.20;;;;;;;;;;5105185;28;20048;-78
2022/08/13 12:56:26;;;;;;;2.42;1.10;;;;;;;;;;5112788;28;20027;-78
2022/08/13 12:58:53;;;;;;;5.38;0.70;;;;;;;;;;5112620;28;20028;-80
2022/08/13 13:01:19;;;;;;;3.13;0.90;;;;;;;;;;5104003;28;20035;-78
2022/08/13 13:03:45;;;;;;;1.77;0.80;;;;;;;;;;5112101;28;20027;-78
2022/08/13 13:06:11;;;;;;;5.13;0.90;;;;;;;;;;5112174;28;20110;-78
2022/08/13 13:08:37;;;;;;;6.32;1.15;;;;;;;;;;5112185;28;20102;-79
2022/08/13 13:11:08;;;;;;;1.85;1.00;;;;;;;;;;5112713;28;20028;-80
2022/08/13 13:13:35;;;;;;;2.90;1.00;;;;;;;;;;5093954;28;20023;-80
2022/08/13 13:16:02;;;;;;;1.35;0.90;;;;;;;;;;5113510;28;20385;-79
2022/08/13 13:18:31;;;;;;;3.00;0.90;;;;;;;;;;5112774;28;20058;-82
2022/08/13 13:20:57;;;;;;;3.13;0.77;;;;;;;;;;5112450;28;20034;-80
2022/08/13 13:23:24;;;;;;;3.10;0.90;;;;;;;;;;5112545;28;20020;-80
2022/08/13 13:25:51;;;;;;;2.55;1.00;;;;;;;;;;5094755;28;20100;-80
2022/08/13 13:28:19;;;;;;;1.73;1.10;;;;;;;;;;5116610;28;20032;-79
2022/08/13 13:30:46;;;;;;;6.15;0.90;;;;;;;;;;5116723;28;20028;-80
2022/08/13 13:33:14;;;;;;;2.00;0.98;;;;;;;;;;5098245;28;20020;-80
2022/08/13 13:35:42;;;;;;;8.20;0.95;;;;;;;;;;5116613;28;20026;-80
2022/08/13 13:38:09;;;;;;;2.92;0.95;;;;;;;;;;5116886;28;20112;-80
2022/08/13 13:40:37;;;;;;;3.42;0.90;;;;;;;;;;5116632;28;20470;-80
2022/08/13 13:43:03;;;;;;;6.53;1.00;;;;;;;;;;5116802;28;20077;-80
2022/08/13 13:45:30;;;;;;;2.10;0.63;;;;;;;;;;5116473;28;20032;-80
2022/08/13 13:47:56;;;;;;;3.60;0.70;;;;;;;;;;5116781;28;20016;-80
2022/08/13 13:50:24;;;;;;;0.88;0.60;;;;;;;;;;5117114;28;20015;-80
2022/08/13 13:52:50;;;;;;;5.65;0.70;;;;;;;;;;5116610;28;20036;-79
2022/08/13 13:55:18;;;;;;;13.15;1.10;;;;;;;;;;5116168;28;20051;-79
2022/08/13 13:57:44;;;;;;;1.27;0.73;;;;;;;;;;5098000;28;20066;-79
2022/08/13 14:00:11;;;;;;;1.40;0.77;;;;;;;;;;5116224;28;20057;-79
2022/08/13 14:02:47;;;;;;;5.00;0.95;;;;;;;;;;5116294;28;20058;-79
2022/08/13 14:05:13;;;;;;;4.22;0.70;;;;;;;;;;5115885;28;20028;-79
2022/08/13 14:07:40;;;;;;;4.85;0.90;;;;;;;;;;5116106;28;20424;-79
2022/08/13 14:10:06;;;;;;;3.47;0.80;;;;;;;;;;5116205;28;20105;-79
2022/08/13 14:12:32;;;;;;;1.10;0.70;;;;;;;;;;5115847;28;20425;-79
2022/08/13 14:14:58;;;;;;;2.08;0.70;;;;;;;;;;5115803;28;20537;-79
2022/08/13 14:17:30;;;;;;;4.70;0.80;;;;;;;;;;5115743;28;20823;-79
2022/08/13 14:19:58;;;;;;;1.10;0.75;;;;;;;;;;5115568;28;20068;-78
2022/08/13 14:22:24;;;;;;;3.25;0.88;;;;;;;;;;5115620;28;20465;-79
2022/08/13 14:24:50;;;;;;;4.00;0.80;;;;;;;;;;5115798;28;20488;-79
2022/08/13 14:27:17;;;;;;;4.10;0.80;;;;;;;;;;5115645;28;20028;-79
2022/08/13 14:29:43;;;;;;;3.33;0.85;;;;;;;;;;5115601;28;20028;-79
2022/08/13 14:32:09;;;;;;;3.45;0.75;;;;;;;;;;5115553;28;20413;-79
2022/08/13 14:34:35;;;;;;;2.03;0.70;;;;;;;;;;5115501;28;20028;-79
2022/08/13 14:37:02;;;;;;;3.20;0.80;;;;;;;;;;5115324;28;20025;-79
2022/08/13 14:39:28;;;;;;;1.00;0.80;;;;;;;;;;5115165;28;20125;-84
2022/08/13 14:41:54;;;;;;;2.58;0.90;;;;;;;;;;5115801;28;20016;-78
2022/08/13 14:44:20;;;;;;;3.45;0.90;;;;;;;;;;5114984;28;20031;-78
2022/08/13 14:46:46;;;;;;;3.88;1.02;;;;;;;;;;5126571;27;20021;-78
2022/08/13 14:49:12;;;;;;;3.28;0.70;;;;;;;;;;5106444;27;20016;-78
2022/08/13 14:51:40;;;;;;;1.83;1.00;;;;;;;;;;5123803;27;20115;-78
2022/08/13 14:54:07;;;;;;;4.93;0.75;;;;;;;;;;5120778;27;20080;-78
2022/08/13 14:56:33;;;;;;;1.55;0.80;;;;;;;;;;5125193;27;20102;-78
2022/08/13 14:58:59;;;;;;;4.30;1.27;;;;;;;;;;5122511;27;20042;-78
2022/08/13 15:01:25;;;;;;;17.08;1.35;;;;;;;;;;5126180;27;20111;-78